This is the latest recevied weather packets stored in our database for station/object K5MJM. If no packets are shown the sender has not sent any weather packets the latest 10 day(s).
| Time | Temp. | Humidity | Pressure | Rain* | Wind** | Luminosity | Snow |
|---|---|---|---|---|---|---|---|
| 1777124718 | 16.67° C | 80% | 1008.9 hPa | 0 mm | - | - | - |
| 1777123559 | 16.67° C | 80% | 1009 hPa | 0 mm | - | - | - |
| 1777120517 | 16.67° C | 80% | 1008.9 hPa | 0 mm | - | - | - |
| 1777114517 | 16.67° C | 80% | 1008.1 hPa | 0 mm | - | - | - |
| 1777113918 | 16.67° C | 80% | 1008.1 hPa | 0 mm | - | - | - |
| 1777110317 | 17.22° C | 80% | 1008.2 hPa | 0 mm | - | - | - |
| 1777107317 | 17.22° C | 81% | 1008.4 hPa | 0 mm | - | - | - |
| 1777103718 | 17.22° C | 78% | 1008.6 hPa | 0 mm | - | - | - |
| 1777101918 | 17.22° C | 78% | 1009.1 hPa | 0 mm | - | - | - |
| 1777100118 | 17.78° C | 78% | 1009.2 hPa | 0 mm | - | - | - |
| 1777096538 | 17.22° C | 76% | 1008.9 hPa | 0 mm | - | - | - |
| 1777093517 | 17.78° C | 76% | 1008.8 hPa | 0 mm | - | - | - |
| 1777089339 | 18.33° C | 75% | 1009.8 hPa | 0 mm | - | - | - |
| 1777088118 | 18.33° C | 74% | 1009.8 hPa | 0 mm | - | - | - |
| 1777086918 | 18.89° C | 73% | 1009.9 hPa | 0 mm | - | - | - |
| 1777082118 | 20° C | 71% | 1009.4 hPa | 0 mm | - | - | - |
| 1777073718 | 23.33° C | 66% | 1007.4 hPa | 0 mm | - | - | - |
| 1777072519 | 23.33° C | 65% | 1007.2 hPa | 0 mm | - | - | - |
| 1777071339 | 23.33° C | 66% | 1007.3 hPa | 0 mm | - | - | - |
| 1777067718 | 23.89° C | 66% | 1007.2 hPa | 0 mm | - | - | - |
| 1777065918 | 23.33° C | 66% | 1007.3 hPa | 0 mm | - | - | - |
| 1777064718 | 23.33° C | 67% | 1007.3 hPa | 0 mm | - | - | - |
| 1777064118 | 23.33° C | 66% | 1007.4 hPa | 0 mm | - | - | - |
| 1777062918 | 23.33° C | 68% | 1007.5 hPa | 0 mm | - | - | - |
| 1777059318 | 23.33° C | 68% | 1008.3 hPa | 0 mm | - | - | - |
* Rain latest hour (hover to see other rain measurements)
** Current wind speed in m/s (hover to see current wind gust speed)